Latest Coastal Weather Observations for Yarram Airport

IDV60701

Issued at 2:45 pm EST Monday 21 April 2014 (issued every 10 minutes, with the page automatically refreshed every 10 minutes)

About coastal observations | Map of coastal stations | Coastal observations for VIC | Marine services | Other Formats
Station Details ID: 085151 Name: YARRAM AIRPORT Lat: -38.56 Lon: 146.75 Height: 17.9 m
Data from the previous 72 hours. | See also: Recent months at Yarram Airport
Date/Time
EST
Temp

°C
Wind Pressure Rain
since 9am
mm
Weather Cloud Vis
km
Sea
Height
m
Swell
Dir
 
Speed
knots
Gust
knots
hPa Trend Height
m
Period
s
Dir
21/02:30pm 19.9 N 7 9 1015.4 - 0.0 - - - - - - -
21/02:00pm 20.5 N 10 14 1015.3 - 0.0 - - - - - - -
21/01:30pm 21.0 N 10 13 1015.7 - 0.0 - - - - - - -
21/01:00pm 20.8 N 10 14 1016.0 - 0.0 - - - - - - -
21/12:30pm 20.5 N 10 15 1016.5 - 0.0 - - - - - - -
21/12:00pm 19.5 N 9 13 1017.1 - 0.0 - - - - - - -
21/11:30am 18.7 N 6 9 1017.7 - 0.0 - - - - - - -
21/11:00am 18.6 NNW 8 10 1018.2 - 0.0 - - - - - - -
21/10:30am 18.3 SE 1 4 1018.4 - 0.0 - - - - - - -
21/10:00am 18.4 ENE 4 6 1018.3 - 0.0 - - - - - - -
21/09:30am 17.1 E 2 4 1018.6 - 0.0 - - - - - - -
21/09:00am 14.9 NE 3 5 1018.8 - 0.0 - - - - - - -
21/08:30am 11.7 ENE 3 4 1019.0 - 0.0 - - - - - - -
21/08:00am 9.1 CALM 0 0 1019.0 - 0.0 - - - - - - -
21/07:30am 7.5 CALM 0 0 1018.6 - 0.0 - - - - - - -
21/07:00am 7.4 CALM 0 0 1018.4 - 0.0 - - - - - - -
21/06:30am 7.4 CALM 0 0 1018.3 - 0.0 - - - - - - -
21/06:00am 7.3 CALM 0 0 1018.1 - 0.0 - - - - - - -
21/05:30am 8.2 N 4 5 1017.8 - 0.0 - - - - - - -
21/05:00am 7.9 N 5 5 1017.9 - 0.0 - - - - - - -
21/04:30am 7.0 N 3 6 1017.7 - 0.0 - - - - - - -
21/04:00am 5.8 N 4 5 1017.4 - 0.0 - - - - - - -
21/03:30am 4.9 E 2 6 1017.3 - 0.0 - - - - - - -
21/03:00am 4.7 ESE 3 4 1017.4 - 0.0 - - - - - - -
21/02:30am 6.0 NE 1 4 1017.4 - 0.0 - - - - - - -
21/02:00am 6.4 N 6 7 1017.4 - 0.0 - - - - - - -
21/01:30am 6.3 N 6 7 1017.4 - 0.0 - - - - - - -
21/01:00am 7.2 N 3 5 1017.5 - 0.0 - - - - - - -
21/12:30am 7.9 N 7 7 1017.4 - 0.0 - - - - - - -
21/12:00am 6.3 NNW 5 6 1017.3 - 0.0 - - - - - - -
 
Date/Time
EST
Temp

°C
Wind Pressure Rain
since 9am
mm
Weather Cloud Vis
km
Sea
Height
m
Swell
Dir
 
Speed
knots
Gust
knots
hPa Trend Height
m
Period
s
Dir
20/11:30pm 6.5 N 4 5 1017.4 - 0.0 - - - - - - -
20/11:00pm 6.8 NNW 4 5 1017.4 - 0.0 - - - - - - -
20/10:30pm 7.1 NNW 4 6 1017.6 - 0.0 - - - - - - -
20/10:00pm 7.6 N 4 6 1017.6 - 0.0 - - - - - - -
20/09:30pm 8.2 N 5 6 1017.5 - 0.0 - - - - - - -
20/09:00pm 8.4 NNE 7 8 1017.3 - 0.0 - - - - - - -
20/08:30pm 8.1 N 7 8 1017.2 - 0.0 - - - - - - -
20/08:00pm 10.4 NW 6 7 1017.1 - 0.0 - - - - - - -
20/07:30pm 10.9 N 7 8 1017.1 - 0.0 - - - - - - -
20/07:00pm 8.9 N 6 7 1016.8 - 0.0 - - - - - - -
20/06:30pm 9.7 N 5 7 1016.6 - 0.0 - - - - - - -
20/06:00pm 11.6 NW 8 9 1016.3 - 0.0 - - - - - - -
20/05:30pm 13.4 NW 5 6 1016.1 - 0.0 - - - - - - -
20/05:00pm 15.5 WNW 7 10 1015.8 - 0.0 - - - - - - -
20/04:30pm 16.8 WNW 10 14 1015.7 - 0.0 - - - - - - -
20/04:00pm 17.2 W 13 17 1015.7 - 0.0 - - - - - - -
20/03:30pm 16.6 W 11 18 1015.6 - 0.0 - - - - - - -
20/03:00pm 16.7 W 10 13 1015.5 - 0.0 - - - - - - -
20/02:30pm 15.7 WNW 12 18 1015.4 - 0.0 - - - - - - -
20/02:00pm 15.5 WNW 13 17 1015.4 - 0.0 - - - - - - -
20/01:30pm 15.4 W 14 19 1015.5 - 0.0 - - - - - - -
20/01:00pm 16.4 WNW 13 19 1015.5 - 0.0 - - - - - - -
20/12:30pm 16.0 WNW 13 18 1015.7 - 0.0 - - - - - - -
20/12:00pm 15.8 WNW 16 21 1016.1 - 0.0 - - - - - - -
20/11:30am 15.8 WNW 12 17 1016.5 - 0.0 - - - - - - -
20/11:00am 15.4 NW 13 20 1016.6 - 0.0 - - - - - - -
20/10:30am 14.6 NW 10 12 1017.0 - 0.0 - - - - - - -
20/10:00am 14.0 NW 9 11 1017.1 - 0.0 - - - - - - -
20/09:30am 13.5 NW 10 13 1017.2 - 0.0 - - - - - - -
20/09:00am 13.5 NW 15 19 1017.0 - 0.0 - - - - - - -
20/08:30am 13.0 NNW 12 16 1016.7 - 0.0 - - - - - - -
20/08:00am 12.7 NNW 9 12 1016.6 - 0.0 - - - - - - -
20/07:30am 11.9 NW 9 10 1016.5 - 0.0 - - - - - - -
20/07:00am 11.8 NNW 8 10 1016.3 - 0.0 - - - - - - -
20/06:30am 11.3 NW 7 8 1016.3 - 0.0 - - - - - - -
20/06:00am 11.2 NNW 6 9 1016.1 - 0.0 - - - - - - -
20/05:30am 10.6 NW 3 4 1016.2 - 0.0 - - - - - - -
20/05:00am 10.5 W 5 6 1016.0 - 0.0 - - - - - - -
20/04:30am 10.6 N 3 4 1015.8 - 0.0 - - - - - - -
20/04:00am 10.7 NW 4 5 1015.9 - 0.0 - - - - - - -
20/03:30am 10.4 NW 4 5 1016.0 - 0.0 - - - - - - -
20/03:00am 11.4 NNW 8 9 1016.0 - 0.0 - - - - - - -
20/02:30am 11.6 NNW 6 7 1016.1 - 0.0 - - - - - - -
20/02:00am 11.7 NNW 6 8 1016.5 - 0.0 - - - - - - -
20/01:30am 11.3 NNW 4 6 1016.7 - 0.0 - - - - - - -
20/01:00am 11.3 NNW 5 7 1016.8 - 0.0 - - - - - - -
20/12:30am 11.4 NNW 5 7 1017.0 - 0.0 - - - - - - -
20/12:00am 11.0 N 7 8 1017.2 - 0.0 - - - - - - -
 
Date/Time
EST
Temp

°C
Wind Pressure Rain
since 9am
mm
Weather Cloud Vis
km
Sea
Height
m
Swell
Dir
 
Speed
knots
Gust
knots
hPa Trend Height
m
Period
s
Dir
19/11:30pm 10.7 WNW 6 8 1017.5 - 0.0 - - - - - - -
19/11:00pm 10.1 NW 5 6 1017.7 - 0.0 - - - - - - -
19/10:30pm 9.6 NW 4 5 1017.8 - 0.0 - - - - - - -
19/10:00pm 9.5 N 5 6 1017.9 - 0.0 - - - - - - -
19/09:30pm 9.3 NNW 3 4 1018.2 - 0.0 - - - - - - -
19/09:00pm 9.1 WNW 4 5 1018.2 - 0.0 - - - - - - -
19/08:30pm 10.3 WNW 6 7 1018.1 - 0.0 - - - - - - -
19/08:00pm 11.3 NW 7 8 1018.1 - 0.0 - - - - - - -
19/07:30pm 11.7 WNW 6 8 1018.1 - 0.0 - - - - - - -
19/07:00pm 11.8 W 7 9 1018.0 - 0.0 - - - - - - -
19/06:30pm 12.2 W 9 12 1017.9 - 0.0 - - - - - - -
19/06:00pm 13.0 W 8 9 1017.8 - 0.0 - - - - - - -
19/05:30pm 13.1 WSW 7 8 1017.7 - 0.0 - - - - - - -
19/05:00pm 13.8 WSW 10 13 1017.6 - 0.0 - - - - - - -
19/04:30pm 13.9 WSW 12 15 1017.6 - 0.0 - - - - - - -
19/04:00pm 14.2 SW 12 15 1017.6 - 0.0 - - - - - - -
19/03:30pm 15.1 WSW 10 13 1017.5 - 0.0 - - - - - - -
19/03:00pm 14.6 WSW 15 21 1017.5 - 0.0 - - - - - - -
19/02:30pm 14.5 WSW 15 19 1017.5 - 0.0 - - - - - - -
19/02:00pm 15.4 WSW 11 15 1017.6 - 0.0 - - - - - - -
19/01:30pm 13.0 WSW 14 19 1017.8 - 0.0 - - - - - - -
19/01:00pm 15.1 W 11 15 1017.8 - 0.0 - - - - - - -
19/12:30pm 13.7 W 14 19 1018.3 - 0.0 - - - - - - -
19/12:00pm 14.1 W 8 12 1018.5 - 0.0 - - - - - - -
19/11:30am 13.5 W 14 17 1018.9 - 0.0 - - - - - - -
19/11:00am 13.0 W 13 16 1019.1 - 0.0 - - - - - - -
19/10:30am 12.4 WSW 14 19 1019.3 - 0.0 - - - - - - -
19/10:00am 14.1 W 10 15 1018.9 - 0.0 - - - - - - -
19/09:30am 13.3 W 8 11 1018.8 - 0.0 - - - - - - -
19/09:00am 12.1 WSW 10 15 1018.8 - 3.4 - - - - - - -
19/08:30am 11.5 W 10 16 1018.9 - 3.0 - - - - - - -
19/08:00am 11.6 W 7 8 1018.5 - 3.0 - - - - - - -
19/07:30am 11.2 W 7 8 1018.2 - 3.0 - - - - - - -
19/07:00am 10.6 WNW 8 9 1018.0 - 3.0 - - - - - - -
19/06:30am 10.9 W 7 8 1017.9 - 3.0 - - - - - - -
19/06:00am 10.1 W 9 12 1017.6 - 3.0 - - - - - - -
19/05:30am 8.2 NNW 4 5 1017.3 - 3.0 - - - - - - -
19/05:00am 10.1 W 8 10 1017.1 - 3.0 - - - - - - -
19/04:30am 10.9 W 11 14 1016.9 - 3.0 - - - - - - -
19/04:00am 10.1 W 8 11 1016.8 - 3.0 - - - - - - -
19/03:30am 11.0 W 10 13 1016.9 - 3.0 - - - - - - -
19/03:00am 11.3 WSW 19 27 1017.2 - 2.8 - - - - - - -
19/02:40am 11.1 WSW 16 28 1017.3 - 2.8 - - - - - - -
19/02:33am 11.6 WSW 22 28 1017.3 - 2.8 - - - - - - -
19/02:30am 10.9 W 11 14 1017.3 - 2.8 - - - - - - -
19/02:00am 10.2 W 8 10 1017.4 - 2.8 - - - - - - -
19/01:30am 10.8 W 8 11 1017.4 - 2.8 - - - - - - -
19/01:00am 11.1 W 9 11 1017.4 - 2.8 - - - - - - -
19/12:30am 11.0 WNW 10 13 1017.5 - 2.8 - - - - - - -
19/12:00am 11.0 W 9 11 1017.6 - 2.8 - - - - - - -
 
Date/Time
EST
Temp

°C
Wind Pressure Rain
since 9am
mm
Weather Cloud Vis
km
Sea
Height
m
Swell
Dir
 
Speed
knots
Gust
knots
hPa Trend Height
m
Period
s
Dir
18/11:30pm 10.1 WNW 6 7 1017.8 - 2.8 - - - - - - -
18/11:00pm 10.3 NW 5 6 1017.9 - 2.8 - - - - - - -
18/10:30pm 11.5 W 11 14 1018.0 - 2.8 - - - - - - -
18/10:00pm 10.6 WNW 9 11 1018.0 - 2.8 - - - - - - -
18/09:30pm 11.1 W 10 13 1018.0 - 2.8 - - - - - - -
18/09:00pm 10.7 NW 7 9 1017.8 - 2.4 - - - - - - -
18/08:30pm 11.7 W 12 15 1017.6 - 2.2 - - - - - - -
18/08:00pm 11.4 WSW 10 13 1017.3 - 2.0 - - - - - - -
18/07:30pm 11.9 WSW 12 17 1017.4 - 2.0 - - - - - - -
18/07:00pm 11.6 W 9 14 1017.0 - 1.8 - - - - - - -
18/06:34pm 13.0 WSW 15 27 1017.0 - 1.8 - - - - - - -
18/06:30pm 13.3 WSW 13 17 1016.8 - 1.8 - - - - - - -
18/06:00pm 13.3 W 12 16 1016.2 - 1.8 - - - - - - -
18/05:30pm 13.4 WSW 16 20 1015.8 - 1.8 - - - - - - -
18/05:11pm 14.2 WSW 16 26 1015.5 - 1.8 - - - - - - -
18/05:00pm 14.4 WSW 16 21 1015.2 - 1.8 - - - - - - -
18/04:30pm 15.3 WSW 17 26 1015.0 - 1.8 - - - - - - -
18/04:00pm 15.6 WSW 20 27 1014.6 - 1.8 - - - - - - -
18/03:40pm 14.9 WSW 20 31 1014.5 - 1.8 - - - - - - -
18/03:30pm 16.4 WSW 19 26 1014.2 - 1.8 - - - - - - -
18/03:00pm 14.6 WSW 20 28 1014.3 - 1.8 - - - - - - -
18/02:46pm 16.2 WSW 19 31 1014.0 - 1.6 - - - - - - -

Other Formats:

Comma delimited format used in spreadsheet applications
http://www.bom.gov.au/fwo/IDV60701/IDV60701.95890.axf

JavaScript Object Notation format (JSON) in row-major order
http://www.bom.gov.au/fwo/IDV60701/IDV60701.95890.json